Time;durP1;ratioP1;P1;durP2;ratioP2;P2;SDS_P1;SDS_P2;PMS_P1;PMS_P2;Temp;Humidity;BMP_temperature;BMP_pressure;BME280_temperature;BME280_humidity;BME280_pressure;Samples;Min_cycle;Max_cycle;Signal;HPM_P1;HPM_P2
2019/06/21 00:00:07;;;;;;;12;10.8;;;;;;;14.16;100;95266.5;;;;
2019/06/21 00:01:11;;;;;;;12;10.8;;;;;;;14.16;100;95266.5;;;;
2019/06/21 00:02:13;;;;;;;12;10.8;;;;;;;14.16;100;95266.5;;;;
2019/06/21 00:03:15;;;;;;;12;10.8;;;;;;;14.16;100;95266.5;;;;
2019/06/21 00:04:16;;;;;;;12;10.8;;;;;;;14.16;100;95266.5;;;;
2019/06/21 00:05:17;;;;;;;12;10.8;;;;;;;14.16;100;95266.5;;;;
2019/06/21 00:06:18;;;;;;;12;10.8;;;;;;;14.16;100;95266.5;;;;
2019/06/21 00:07:20;;;;;;;12;10.8;;;;;;;14.16;100;95266.5;;;;
2019/06/21 00:08:21;;;;;;;14;12.35;;;;;;;13.97;100;95265.25;;;;
2019/06/21 00:09:22;;;;;;;14;12.35;;;;;;;13.97;100;95265.25;;;;
2019/06/21 00:10:23;;;;;;;14;12.35;;;;;;;13.97;100;95265.25;;;;
2019/06/21 00:11:24;;;;;;;14;12.35;;;;;;;13.97;100;95265.25;;;;
2019/06/21 00:12:25;;;;;;;14;12.35;;;;;;;13.97;100;95265.25;;;;
2019/06/21 00:13:26;;;;;;;14;12.35;;;;;;;13.97;100;95265.25;;;;
2019/06/21 00:14:27;;;;;;;14;12.35;;;;;;;13.97;100;95265.25;;;;
2019/06/21 00:15:28;;;;;;;14;12.35;;;;;;;13.97;100;95265.25;;;;
2019/06/21 00:16:29;;;;;;;14;12.35;;;;;;;13.97;100;95265.25;;;;
2019/06/21 00:17:31;;;;;;;14;12.35;;;;;;;13.97;100;95265.25;;;;
2019/06/21 00:18:32;;;;;;;14;12.35;;;;;;;13.97;100;95265.25;;;;
2019/06/21 00:19:33;;;;;;;14;12.35;;;;;;;13.97;100;95265.25;;;;
2019/06/21 00:20:34;;;;;;;14;12.35;;;;;;;13.97;100;95265.25;;;;
2019/06/21 00:21:36;;;;;;;14;12.35;;;;;;;13.97;100;95265.25;;;;
2019/06/21 00:22:37;;;;;;;14;12.35;;;;;;;13.97;100;95265.25;;;;
2019/06/21 00:23:38;;;;;;;14;12.35;;;;;;;13.97;100;95265.25;;;;
2019/06/21 00:24:39;;;;;;;14;12.35;;;;;;;13.97;100;95265.25;;;;
2019/06/21 00:25:40;;;;;;;14;12.35;;;;;;;13.97;100;95265.25;;;;
2019/06/21 00:26:41;;;;;;;14;12.35;;;;;;;13.97;100;95265.25;;;;
2019/06/21 00:27:42;;;;;;;14;12.35;;;;;;;13.97;100;95265.25;;;;
2019/06/21 00:28:43;;;;;;;14;12.35;;;;;;;13.97;100;95265.25;;;;
2019/06/21 00:29:45;;;;;;;12.35;11.15;;;;;;;13.99;100;95266.75;;;;
2019/06/21 00:30:46;;;;;;;12.35;11.15;;;;;;;13.99;100;95266.75;;;;
2019/06/21 00:31:47;;;;;;;12.35;11.15;;;;;;;13.99;100;95266.75;;;;
2019/06/21 00:32:48;;;;;;;12.35;11.15;;;;;;;13.99;100;95266.75;;;;
2019/06/21 00:33:49;;;;;;;12.35;11.15;;;;;;;13.99;100;95266.75;;;;
2019/06/21 00:34:50;;;;;;;12.35;11.15;;;;;;;13.99;100;95266.75;;;;
2019/06/21 00:35:51;;;;;;;12.35;11.15;;;;;;;13.99;100;95266.75;;;;
2019/06/21 00:36:52;;;;;;;12.35;11.15;;;;;;;13.99;100;95266.75;;;;
2019/06/21 00:37:53;;;;;;;12.35;11.15;;;;;;;13.99;100;95266.75;;;;
2019/06/21 00:38:54;;;;;;;12.35;11.15;;;;;;;13.99;100;95266.75;;;;
2019/06/21 00:39:56;;;;;;;11.1;10;;;;;;;13.92;100;95270.22;;;;
2019/06/21 00:40:57;;;;;;;11.1;10;;;;;;;13.92;100;95270.22;;;;
2019/06/21 00:41:58;;;;;;;11.1;10;;;;;;;13.92;100;95270.22;;;;
2019/06/21 00:42:59;;;;;;;11.1;10;;;;;;;13.92;100;95270.22;;;;
2019/06/21 00:44:00;;;;;;;11.1;10;;;;;;;13.92;100;95270.22;;;;
2019/06/21 00:45:01;;;;;;;11.1;10;;;;;;;13.92;100;95270.22;;;;
2019/06/21 00:46:03;;;;;;;11.1;10;;;;;;;13.92;100;95270.22;;;;
2019/06/21 00:47:04;;;;;;;11.1;10;;;;;;;13.92;100;95270.22;;;;
2019/06/21 00:48:05;;;;;;;11.1;10;;;;;;;13.92;100;95270.22;;;;
2019/06/21 00:49:06;;;;;;;11.1;10;;;;;;;13.92;100;95270.22;;;;
2019/06/21 00:50:07;;;;;;;11.1;10;;;;;;;13.92;100;95270.22;;;;
2019/06/21 00:51:09;;;;;;;11.1;10;;;;;;;13.92;100;95270.22;;;;
2019/06/21 00:52:10;;;;;;;11.1;10;;;;;;;13.92;100;95270.22;;;;
2019/06/21 00:53:12;;;;;;;11.1;10;;;;;;;13.92;100;95270.22;;;;
2019/06/21 00:54:13;;;;;;;11.1;10;;;;;;;13.92;100;95270.22;;;;
2019/06/21 00:55:14;;;;;;;11.1;10;;;;;;;13.92;100;95270.22;;;;
2019/06/21 00:56:15;;;;;;;11.1;10;;;;;;;13.92;100;95270.22;;;;
2019/06/21 00:57:16;;;;;;;11.1;10;;;;;;;13.92;100;95270.22;;;;
2019/06/21 00:58:17;;;;;;;11.1;10;;;;;;;13.92;100;95270.22;;;;
2019/06/21 00:59:18;;;;;;;11.1;10;;;;;;;13.92;100;95270.22;;;;
2019/06/21 01:00:19;;;;;;;11.1;10;;;;;;;13.92;100;95270.22;;;;
2019/06/21 01:01:22;;;;;;;11.3;10.2;;;;;;;13.7;100;95263.08;;;;
2019/06/21 01:02:23;;;;;;;11.3;10.2;;;;;;;13.7;100;95263.08;;;;
2019/06/21 01:03:24;;;;;;;11.3;10.2;;;;;;;13.7;100;95263.08;;;;
2019/06/21 01:04:25;;;;;;;11.3;10.2;;;;;;;13.7;100;95263.08;;;;
2019/06/21 01:05:26;;;;;;;11.3;10.2;;;;;;;13.7;100;95263.08;;;;
2019/06/21 01:06:27;;;;;;;11.3;10.2;;;;;;;13.7;100;95263.08;;;;
2019/06/21 01:07:28;;;;;;;11.3;10.2;;;;;;;13.7;100;95263.08;;;;
2019/06/21 01:08:29;;;;;;;11.3;10.2;;;;;;;13.7;100;95263.08;;;;
2019/06/21 01:09:31;;;;;;;11.3;10.2;;;;;;;13.7;100;95263.08;;;;
2019/06/21 01:10:32;;;;;;;11.3;10.2;;;;;;;13.7;100;95263.08;;;;
2019/06/21 01:11:33;;;;;;;11.3;10.2;;;;;;;13.7;100;95263.08;;;;
2019/06/21 01:12:34;;;;;;;11.3;10.2;;;;;;;13.7;100;95263.08;;;;
2019/06/21 01:13:35;;;;;;;11.3;10.2;;;;;;;13.7;100;95263.08;;;;
2019/06/21 01:14:37;;;;;;;11.3;10.2;;;;;;;13.7;100;95263.08;;;;
2019/06/21 01:15:38;;;;;;;11.3;10.2;;;;;;;13.7;100;95263.08;;;;
2019/06/21 01:16:39;;;;;;;11.3;10.2;;;;;;;13.7;100;95263.08;;;;
2019/06/21 01:17:40;;;;;;;11.3;10.2;;;;;;;13.7;100;95263.08;;;;
2019/06/21 01:18:41;;;;;;;11.3;10.2;;;;;;;13.7;100;95263.08;;;;
2019/06/21 01:19:43;;;;;;;11.3;10.2;;;;;;;13.7;100;95263.08;;;;
2019/06/21 01:20:44;;;;;;;11.3;10.2;;;;;;;13.7;100;95263.08;;;;
2019/06/21 01:21:45;;;;;;;11.3;10.2;;;;;;;13.7;100;95263.08;;;;
2019/06/21 01:22:46;;;;;;;11.3;10.2;;;;;;;13.7;100;95263.08;;;;
2019/06/21 01:23:47;;;;;;;11.3;10.2;;;;;;;13.7;100;95263.08;;;;
2019/06/21 01:24:48;;;;;;;11.3;10.2;;;;;;;13.7;100;95263.08;;;;
2019/06/21 01:25:49;;;;;;;11.3;10.2;;;;;;;13.7;100;95263.08;;;;
2019/06/21 01:26:51;;;;;;;11.3;10.2;;;;;;;13.7;100;95263.08;;;;
2019/06/21 01:27:52;;;;;;;11.3;10.2;;;;;;;13.7;100;95263.08;;;;
2019/06/21 01:28:54;;;;;;;11.3;10.2;;;;;;;13.7;100;95263.08;;;;
2019/06/21 01:29:55;;;;;;;11.3;10.2;;;;;;;13.7;100;95263.08;;;;
2019/06/21 01:30:56;;;;;;;11.3;10.2;;;;;;;13.7;100;95263.08;;;;
2019/06/21 01:31:57;;;;;;;11.3;10.2;;;;;;;13.7;100;95263.08;;;;
2019/06/21 01:32:58;;;;;;;11.85;10.75;;;;;;;13.5;100;95262.44;;;;
2019/06/21 01:33:59;;;;;;;11.85;10.75;;;;;;;13.5;100;95262.44;;;;
2019/06/21 01:35:00;;;;;;;11.85;10.75;;;;;;;13.5;100;95262.44;;;;
2019/06/21 01:36:02;;;;;;;11.85;10.75;;;;;;;13.5;100;95262.44;;;;
2019/06/21 01:37:03;;;;;;;11.85;10.75;;;;;;;13.5;100;95262.44;;;;
2019/06/21 01:38:05;;;;;;;11.85;10.75;;;;;;;13.5;100;95262.44;;;;
2019/06/21 01:39:06;;;;;;;11.85;10.75;;;;;;;13.5;100;95262.44;;;;
2019/06/21 01:40:07;;;;;;;11.85;10.75;;;;;;;13.5;100;95262.44;;;;
2019/06/21 01:41:11;;;;;;;11.85;10.75;;;;;;;13.5;100;95262.44;;;;
2019/06/21 01:42:12;;;;;;;11.85;10.75;;;;;;;13.5;100;95262.44;;;;
2019/06/21 01:43:13;;;;;;;9.350001;8.45;;;;;;;13.4;100;95271.41;;;;
2019/06/21 01:44:14;;;;;;;9.350001;8.45;;;;;;;13.4;100;95271.41;;;;
2019/06/21 01:45:15;;;;;;;9.350001;8.45;;;;;;;13.4;100;95271.41;;;;
2019/06/21 01:46:17;;;;;;;9.350001;8.45;;;;;;;13.4;100;95271.41;;;;
2019/06/21 01:47:18;;;;;;;9.350001;8.45;;;;;;;13.4;100;95271.41;;;;
2019/06/21 01:48:19;;;;;;;9.350001;8.45;;;;;;;13.4;100;95271.41;;;;
2019/06/21 01:49:20;;;;;;;9.350001;8.45;;;;;;;13.4;100;95271.41;;;;
2019/06/21 01:50:22;;;;;;;9.350001;8.45;;;;;;;13.4;100;95271.41;;;;
2019/06/21 01:51:23;;;;;;;9.350001;8.45;;;;;;;13.4;100;95271.41;;;;
2019/06/21 01:52:24;;;;;;;9.350001;8.45;;;;;;;13.4;100;95271.41;;;;
2019/06/21 01:53:25;;;;;;;9.350001;8.45;;;;;;;13.4;100;95271.41;;;;
2019/06/21 01:54:26;;;;;;;12.3;10.3;;;;;;;13.38;100;95266.77;;;;
2019/06/21 01:55:27;;;;;;;12.3;10.3;;;;;;;13.38;100;95266.77;;;;
2019/06/21 01:56:29;;;;;;;12.3;10.3;;;;;;;13.38;100;95266.77;;;;
2019/06/21 01:57:30;;;;;;;12.3;10.3;;;;;;;13.38;100;95266.77;;;;
2019/06/21 01:58:31;;;;;;;12.3;10.3;;;;;;;13.38;100;95266.77;;;;
2019/06/21 01:59:32;;;;;;;12.3;10.3;;;;;;;13.38;100;95266.77;;;;
2019/06/21 02:00:33;;;;;;;12.3;10.3;;;;;;;13.38;100;95266.77;;;;
2019/06/21 02:01:34;;;;;;;12.3;10.3;;;;;;;13.38;100;95266.77;;;;
2019/06/21 02:02:35;;;;;;;12.3;10.3;;;;;;;13.38;100;95266.77;;;;
2019/06/21 02:03:37;;;;;;;12.3;10.3;;;;;;;13.38;100;95266.77;;;;
2019/06/21 02:04:38;;;;;;;11.8;10.25;;;;;;;13.3;100;95276.17;;;;
2019/06/21 02:05:39;;;;;;;11.8;10.25;;;;;;;13.3;100;95276.17;;;;
2019/06/21 02:06:40;;;;;;;11.8;10.25;;;;;;;13.3;100;95276.17;;;;
2019/06/21 02:07:41;;;;;;;11.8;10.25;;;;;;;13.3;100;95276.17;;;;
2019/06/21 02:08:43;;;;;;;11.8;10.25;;;;;;;13.3;100;95276.17;;;;
2019/06/21 02:09:44;;;;;;;11.8;10.25;;;;;;;13.3;100;95276.17;;;;
2019/06/21 02:10:45;;;;;;;11.8;10.25;;;;;;;13.3;100;95276.17;;;;
2019/06/21 02:11:46;;;;;;;11.8;10.25;;;;;;;13.3;100;95276.17;;;;
2019/06/21 02:12:47;;;;;;;11.8;10.25;;;;;;;13.3;100;95276.17;;;;
2019/06/21 02:13:49;;;;;;;11.8;10.25;;;;;;;13.3;100;95276.17;;;;
2019/06/21 02:14:50;;;;;;;14.55;13;;;;;;;13.33;100;95288.42;;;;
2019/06/21 02:15:51;;;;;;;14.55;13;;;;;;;13.33;100;95288.42;;;;
2019/06/21 02:16:52;;;;;;;14.55;13;;;;;;;13.33;100;95288.42;;;;
2019/06/21 02:17:54;;;;;;;14.55;13;;;;;;;13.33;100;95288.42;;;;
2019/06/21 02:18:55;;;;;;;14.55;13;;;;;;;13.33;100;95288.42;;;;
2019/06/21 02:19:56;;;;;;;14.55;13;;;;;;;13.33;100;95288.42;;;;
2019/06/21 02:20:57;;;;;;;14.55;13;;;;;;;13.33;100;95288.42;;;;
2019/06/21 02:21:58;;;;;;;14.55;13;;;;;;;13.33;100;95288.42;;;;
2019/06/21 02:22:59;;;;;;;14.55;13;;;;;;;13.33;100;95288.42;;;;
2019/06/21 02:24:00;;;;;;;14.55;13;;;;;;;13.33;100;95288.42;;;;
2019/06/21 02:25:01;;;;;;;14.55;13;;;;;;;13.33;100;95288.42;;;;
2019/06/21 02:26:03;;;;;;;10;8.950001;;;;;;;13.28;100;95286.86;;;;
2019/06/21 02:27:04;;;;;;;10;8.950001;;;;;;;13.28;100;95286.86;;;;
2019/06/21 02:28:05;;;;;;;10;8.950001;;;;;;;13.28;100;95286.86;;;;
2019/06/21 02:29:07;;;;;;;10;8.950001;;;;;;;13.28;100;95286.86;;;;
2019/06/21 02:30:08;;;;;;;10;8.950001;;;;;;;13.28;100;95286.86;;;;
2019/06/21 02:31:12;;;;;;;10;8.950001;;;;;;;13.28;100;95286.86;;;;
2019/06/21 02:32:13;;;;;;;10;8.950001;;;;;;;13.28;100;95286.86;;;;
2019/06/21 02:33:14;;;;;;;10;8.950001;;;;;;;13.28;100;95286.86;;;;
2019/06/21 02:34:15;;;;;;;10;8.950001;;;;;;;13.28;100;95286.86;;;;
2019/06/21 02:35:16;;;;;;;10;8.950001;;;;;;;13.28;100;95286.86;;;;
2019/06/21 02:36:18;;;;;;;10;9;;;;;;;13.22;100;95291.92;;;;
2019/06/21 02:37:19;;;;;;;10;9;;;;;;;13.22;100;95291.92;;;;
2019/06/21 02:38:20;;;;;;;10;9;;;;;;;13.22;100;95291.92;;;;
2019/06/21 02:39:21;;;;;;;10;9;;;;;;;13.22;100;95291.92;;;;
2019/06/21 02:40:22;;;;;;;10;9;;;;;;;13.22;100;95291.92;;;;
2019/06/21 02:41:23;;;;;;;10;9;;;;;;;13.22;100;95291.92;;;;
2019/06/21 02:42:25;;;;;;;10;9;;;;;;;13.22;100;95291.92;;;;
2019/06/21 02:43:26;;;;;;;10;9;;;;;;;13.22;100;95291.92;;;;
2019/06/21 02:44:27;;;;;;;10;9;;;;;;;13.22;100;95291.92;;;;
2019/06/21 02:45:28;;;;;;;10;9;;;;;;;13.22;100;95291.92;;;;
2019/06/21 02:46:29;;;;;;;10;9;;;;;;;13.22;100;95291.92;;;;
2019/06/21 02:47:30;;;;;;;9.749999;8.849999;;;;;;;13.1;100;95293.11;;;;
2019/06/21 02:48:32;;;;;;;9.749999;8.849999;;;;;;;13.1;100;95293.11;;;;
2019/06/21 02:49:33;;;;;;;9.749999;8.849999;;;;;;;13.1;100;95293.11;;;;
2019/06/21 02:50:35;;;;;;;9.749999;8.849999;;;;;;;13.1;100;95293.11;;;;
2019/06/21 02:51:36;;;;;;;9.749999;8.849999;;;;;;;13.1;100;95293.11;;;;
2019/06/21 02:52:38;;;;;;;9.749999;8.849999;;;;;;;13.1;100;95293.11;;;;
2019/06/21 02:53:39;;;;;;;9.749999;8.849999;;;;;;;13.1;100;95293.11;;;;
2019/06/21 02:54:40;;;;;;;9.749999;8.849999;;;;;;;13.1;100;95293.11;;;;
2019/06/21 02:55:41;;;;;;;9.749999;8.849999;;;;;;;13.1;100;95293.11;;;;
2019/06/21 02:56:42;;;;;;;9.749999;8.849999;;;;;;;13.1;100;95293.11;;;;
2019/06/21 02:57:43;;;;;;;10.2;9.25;;;;;;;13.02;100;95291.24;;;;
2019/06/21 02:58:44;;;;;;;10.2;9.25;;;;;;;13.02;100;95291.24;;;;
2019/06/21 02:59:45;;;;;;;10.2;9.25;;;;;;;13.02;100;95291.24;;;;
2019/06/21 03:00:46;;;;;;;10.2;9.25;;;;;;;13.02;100;95291.24;;;;
2019/06/21 03:01:48;;;;;;;10.2;9.25;;;;;;;13.02;100;95291.24;;;;
2019/06/21 03:02:49;;;;;;;10.2;9.25;;;;;;;13.02;100;95291.24;;;;
2019/06/21 03:03:50;;;;;;;10.2;9.25;;;;;;;13.02;100;95291.24;;;;
2019/06/21 03:04:51;;;;;;;10.2;9.25;;;;;;;13.02;100;95291.24;;;;
2019/06/21 03:05:52;;;;;;;10.2;9.25;;;;;;;13.02;100;95291.24;;;;
2019/06/21 03:06:53;;;;;;;10.2;9.25;;;;;;;13.02;100;95291.24;;;;
2019/06/21 03:07:54;;;;;;;12.1;10.9;;;;;;;12.93;100;95296.8;;;;
2019/06/21 03:08:56;;;;;;;12.1;10.9;;;;;;;12.93;100;95296.8;;;;
2019/06/21 03:09:57;;;;;;;12.1;10.9;;;;;;;12.93;100;95296.8;;;;
2019/06/21 03:10:58;;;;;;;12.1;10.9;;;;;;;12.93;100;95296.8;;;;
2019/06/21 03:11:59;;;;;;;12.1;10.9;;;;;;;12.93;100;95296.8;;;;
2019/06/21 03:13:01;;;;;;;12.1;10.9;;;;;;;12.93;100;95296.8;;;;
2019/06/21 03:14:02;;;;;;;12.1;10.9;;;;;;;12.93;100;95296.8;;;;
2019/06/21 03:15:03;;;;;;;12.1;10.9;;;;;;;12.93;100;95296.8;;;;
2019/06/21 03:16:05;;;;;;;12.1;10.9;;;;;;;12.93;100;95296.8;;;;
2019/06/21 03:17:06;;;;;;;12.1;10.9;;;;;;;12.93;100;95296.8;;;;
2019/06/21 03:18:08;;;;;;;12.1;10.9;;;;;;;12.93;100;95296.8;;;;
2019/06/21 03:19:09;;;;;;;10.75;9.7;;;;;;;12.95;100;95296.81;;;;
2019/06/21 03:20:10;;;;;;;10.75;9.7;;;;;;;12.95;100;95296.81;;;;
2019/06/21 03:21:11;;;;;;;10.75;9.7;;;;;;;12.95;100;95296.81;;;;
2019/06/21 03:22:13;;;;;;;10.75;9.7;;;;;;;12.95;100;95296.81;;;;
2019/06/21 03:23:14;;;;;;;10.75;9.7;;;;;;;12.95;100;95296.81;;;;
2019/06/21 03:24:15;;;;;;;10.75;9.7;;;;;;;12.95;100;95296.81;;;;
2019/06/21 03:25:16;;;;;;;10.75;9.7;;;;;;;12.95;100;95296.81;;;;
2019/06/21 03:26:17;;;;;;;10.75;9.7;;;;;;;12.95;100;95296.81;;;;
2019/06/21 03:27:18;;;;;;;10.75;9.7;;;;;;;12.95;100;95296.81;;;;
2019/06/21 03:28:19;;;;;;;10.75;9.7;;;;;;;12.95;100;95296.81;;;;
2019/06/21 03:29:21;;;;;;;10.8;9.799999;;;;;;;12.89;100;95302.84;;;;
2019/06/21 03:30:22;;;;;;;10.8;9.799999;;;;;;;12.89;100;95302.84;;;;
2019/06/21 03:31:23;;;;;;;10.8;9.799999;;;;;;;12.89;100;95302.84;;;;
2019/06/21 03:32:24;;;;;;;10.8;9.799999;;;;;;;12.89;100;95302.84;;;;
2019/06/21 03:33:25;;;;;;;10.8;9.799999;;;;;;;12.89;100;95302.84;;;;
2019/06/21 03:34:26;;;;;;;10.8;9.799999;;;;;;;12.89;100;95302.84;;;;
2019/06/21 03:35:27;;;;;;;10.8;9.799999;;;;;;;12.89;100;95302.84;;;;
2019/06/21 03:36:28;;;;;;;10.8;9.799999;;;;;;;12.89;100;95302.84;;;;
2019/06/21 03:37:29;;;;;;;10.8;9.799999;;;;;;;12.89;100;95302.84;;;;
2019/06/21 03:38:31;;;;;;;10.8;9.799999;;;;;;;12.89;100;95302.84;;;;
2019/06/21 03:39:32;;;;;;;11.15;10.15;;;;;;;12.88;100;95296.32;;;;
2019/06/21 03:40:33;;;;;;;11.15;10.15;;;;;;;12.88;100;95296.32;;;;
2019/06/21 03:41:34;;;;;;;11.15;10.15;;;;;;;12.88;100;95296.32;;;;
2019/06/21 03:42:35;;;;;;;11.15;10.15;;;;;;;12.88;100;95296.32;;;;
2019/06/21 03:43:37;;;;;;;11.15;10.15;;;;;;;12.88;100;95296.32;;;;
2019/06/21 03:44:38;;;;;;;11.15;10.15;;;;;;;12.88;100;95296.32;;;;
2019/06/21 03:45:39;;;;;;;11.15;10.15;;;;;;;12.88;100;95296.32;;;;
2019/06/21 03:46:40;;;;;;;11.15;10.15;;;;;;;12.88;100;95296.32;;;;
2019/06/21 03:47:41;;;;;;;11.15;10.15;;;;;;;12.88;100;95296.32;;;;
2019/06/21 03:48:42;;;;;;;11.15;10.15;;;;;;;12.88;100;95296.32;;;;
2019/06/21 03:49:43;;;;;;;11.15;10.15;;;;;;;12.88;100;95296.32;;;;
2019/06/21 03:50:44;;;;;;;12.95;11.65;;;;;;;12.85;100;95300.34;;;;
2019/06/21 03:52:11;;;;;;;12.95;11.65;;;;;;;12.85;100;95300.34;;;;
2019/06/21 03:53:12;;;;;;;12.95;11.65;;;;;;;12.85;100;95300.34;;;;
2019/06/21 03:54:14;;;;;;;12.95;11.65;;;;;;;12.85;100;95300.34;;;;
2019/06/21 03:55:15;;;;;;;12.95;11.65;;;;;;;12.85;100;95300.34;;;;
2019/06/21 03:56:16;;;;;;;12.95;11.65;;;;;;;12.85;100;95300.34;;;;
2019/06/21 03:57:17;;;;;;;12.95;11.65;;;;;;;12.85;100;95300.34;;;;
2019/06/21 03:58:18;;;;;;;12.95;11.65;;;;;;;12.85;100;95300.34;;;;
2019/06/21 03:59:19;;;;;;;12.95;11.65;;;;;;;12.85;100;95300.34;;;;
2019/06/21 04:00:20;;;;;;;12.95;11.65;;;;;;;12.85;100;95300.34;;;;
2019/06/21 04:01:22;;;;;;;15;13.5;;;;;;;13;100;95302.44;;;;
2019/06/21 04:02:23;;;;;;;15;13.5;;;;;;;13;100;95302.44;;;;
2019/06/21 04:03:24;;;;;;;15;13.5;;;;;;;13;100;95302.44;;;;
2019/06/21 04:04:25;;;;;;;15;13.5;;;;;;;13;100;95302.44;;;;
2019/06/21 04:05:26;;;;;;;15;13.5;;;;;;;13;100;95302.44;;;;
2019/06/21 04:06:27;;;;;;;15;13.5;;;;;;;13;100;95302.44;;;;
2019/06/21 04:07:28;;;;;;;15;13.5;;;;;;;13;100;95302.44;;;;
2019/06/21 04:08:29;;;;;;;15;13.5;;;;;;;13;100;95302.44;;;;
2019/06/21 04:09:30;;;;;;;15;13.5;;;;;;;13;100;95302.44;;;;
2019/06/21 04:10:32;;;;;;;15;13.5;;;;;;;13;100;95302.44;;;;
2019/06/21 04:11:33;;;;;;;13.6;12.2;;;;;;;13.12;100;95302.64;;;;
2019/06/21 04:12:34;;;;;;;13.6;12.2;;;;;;;13.12;100;95302.64;;;;
2019/06/21 04:13:35;;;;;;;13.6;12.2;;;;;;;13.12;100;95302.64;;;;
2019/06/21 04:14:36;;;;;;;13.6;12.2;;;;;;;13.12;100;95302.64;;;;
2019/06/21 04:15:37;;;;;;;13.6;12.2;;;;;;;13.12;100;95302.64;;;;
2019/06/21 04:16:38;;;;;;;13.6;12.2;;;;;;;13.12;100;95302.64;;;;
2019/06/21 04:17:39;;;;;;;13.6;12.2;;;;;;;13.12;100;95302.64;;;;
2019/06/21 04:18:40;;;;;;;13.6;12.2;;;;;;;13.12;100;95302.64;;;;
2019/06/21 04:19:41;;;;;;;13.6;12.2;;;;;;;13.12;100;95302.64;;;;
2019/06/21 04:20:42;;;;;;;13.6;12.2;;;;;;;13.12;100;95302.64;;;;
2019/06/21 04:21:43;;;;;;;13.6;12.2;;;;;;;13.12;100;95302.64;;;;
2019/06/21 04:22:45;;;;;;;15.75;14.35;;;;;;;13.35;100;95304.69;;;;
2019/06/21 04:23:46;;;;;;;15.75;14.35;;;;;;;13.35;100;95304.69;;;;
2019/06/21 04:24:47;;;;;;;15.75;14.35;;;;;;;13.35;100;95304.69;;;;
2019/06/21 04:25:48;;;;;;;15.75;14.35;;;;;;;13.35;100;95304.69;;;;
2019/06/21 04:26:49;;;;;;;15.75;14.35;;;;;;;13.35;100;95304.69;;;;
2019/06/21 04:27:50;;;;;;;15.75;14.35;;;;;;;13.35;100;95304.69;;;;
2019/06/21 04:28:51;;;;;;;15.75;14.35;;;;;;;13.35;100;95304.69;;;;
2019/06/21 04:29:52;;;;;;;15.75;14.35;;;;;;;13.35;100;95304.69;;;;
2019/06/21 04:30:53;;;;;;;15.75;14.35;;;;;;;13.35;100;95304.69;;;;
2019/06/21 04:31:54;;;;;;;15.75;14.35;;;;;;;13.35;100;95304.69;;;;
2019/06/21 04:32:55;;;;;;;14.3;12.8;;;;;;;13.58;100;95298.21;;;;
2019/06/21 04:33:57;;;;;;;14.3;12.8;;;;;;;13.58;100;95298.21;;;;
2019/06/21 04:34:58;;;;;;;14.3;12.8;;;;;;;13.58;100;95298.21;;;;
2019/06/21 04:35:59;;;;;;;14.3;12.8;;;;;;;13.58;100;95298.21;;;;
2019/06/21 04:37:00;;;;;;;14.3;12.8;;;;;;;13.58;100;95298.21;;;;
2019/06/21 04:38:01;;;;;;;14.3;12.8;;;;;;;13.58;100;95298.21;;;;
2019/06/21 04:39:04;;;;;;;14.3;12.8;;;;;;;13.58;100;95298.21;;;;
2019/06/21 04:40:05;;;;;;;14.3;12.8;;;;;;;13.58;100;95298.21;;;;
2019/06/21 04:41:07;;;;;;;14.3;12.8;;;;;;;13.58;100;95298.21;;;;
2019/06/21 04:42:08;;;;;;;14.3;12.8;;;;;;;13.58;100;95298.21;;;;
2019/06/21 04:43:09;;;;;;;11.9;10.9;;;;;;;13.99;100;95295.67;;;;
2019/06/21 04:44:10;;;;;;;11.9;10.9;;;;;;;13.99;100;95295.67;;;;
2019/06/21 04:45:11;;;;;;;11.9;10.9;;;;;;;13.99;100;95295.67;;;;
2019/06/21 04:46:13;;;;;;;11.9;10.9;;;;;;;13.99;100;95295.67;;;;
2019/06/21 04:47:14;;;;;;;11.9;10.9;;;;;;;13.99;100;95295.67;;;;
2019/06/21 04:48:15;;;;;;;11.9;10.9;;;;;;;13.99;100;95295.67;;;;
2019/06/21 04:49:16;;;;;;;11.9;10.9;;;;;;;13.99;100;95295.67;;;;
2019/06/21 04:50:17;;;;;;;11.9;10.9;;;;;;;13.99;100;95295.67;;;;
2019/06/21 04:51:19;;;;;;;11.9;10.9;;;;;;;13.99;100;95295.67;;;;
2019/06/21 04:52:20;;;;;;;11.9;10.9;;;;;;;13.99;100;95295.67;;;;
2019/06/21 04:53:21;;;;;;;11.9;10.9;;;;;;;13.99;100;95295.67;;;;
2019/06/21 04:54:22;;;;;;;9.9;9;;;;;;;14.66;100;95306.06;;;;
2019/06/21 04:55:23;;;;;;;9.9;9;;;;;;;14.66;100;95306.06;;;;
2019/06/21 04:56:24;;;;;;;9.9;9;;;;;;;14.66;100;95306.06;;;;
2019/06/21 04:57:25;;;;;;;9.9;9;;;;;;;14.66;100;95306.06;;;;
2019/06/21 04:58:26;;;;;;;9.9;9;;;;;;;14.66;100;95306.06;;;;
2019/06/21 04:59:27;;;;;;;9.9;9;;;;;;;14.66;100;95306.06;;;;
2019/06/21 05:00:28;;;;;;;9.9;9;;;;;;;14.66;100;95306.06;;;;
2019/06/21 05:01:30;;;;;;;9.9;9;;;;;;;14.66;100;95306.06;;;;
2019/06/21 05:02:31;;;;;;;9.9;9;;;;;;;14.66;100;95306.06;;;;
2019/06/21 05:03:32;;;;;;;9.9;9;;;;;;;14.66;100;95306.06;;;;
2019/06/21 05:04:33;;;;;;;8.299999;7.55;;;;;;;15.22;100;95304.94;;;;
2019/06/21 05:05:34;;;;;;;8.299999;7.55;;;;;;;15.22;100;95304.94;;;;
2019/06/21 05:06:35;;;;;;;8.299999;7.55;;;;;;;15.22;100;95304.94;;;;
2019/06/21 05:07:36;;;;;;;8.299999;7.55;;;;;;;15.22;100;95304.94;;;;
2019/06/21 05:08:37;;;;;;;8.299999;7.55;;;;;;;15.22;100;95304.94;;;;
2019/06/21 05:09:38;;;;;;;8.299999;7.55;;;;;;;15.22;100;95304.94;;;;
2019/06/21 05:10:45;;;;;;;8.299999;7.55;;;;;;;15.22;100;95304.94;;;;
2019/06/21 05:11:46;;;;;;;8.299999;7.55;;;;;;;15.22;100;95304.94;;;;
2019/06/21 05:12:47;;;;;;;8.299999;7.55;;;;;;;15.22;100;95304.94;;;;
2019/06/21 05:13:49;;;;;;;8.299999;7.55;;;;;;;15.22;100;95304.94;;;;
2019/06/21 05:14:50;;;;;;;7.500001;6.9;;;;;;;15.55;100;95327.15;;;;
2019/06/21 05:15:51;;;;;;;7.500001;6.9;;;;;;;15.55;100;95327.15;;;;
2019/06/21 05:16:52;;;;;;;7.500001;6.9;;;;;;;15.55;100;95327.15;;;;
2019/06/21 05:17:53;;;;;;;7.500001;6.9;;;;;;;15.55;100;95327.15;;;;
2019/06/21 05:18:54;;;;;;;7.500001;6.9;;;;;;;15.55;100;95327.15;;;;
2019/06/21 05:19:55;;;;;;;7.500001;6.9;;;;;;;15.55;100;95327.15;;;;
2019/06/21 05:20:56;;;;;;;7.500001;6.9;;;;;;;15.55;100;95327.15;;;;
2019/06/21 05:21:57;;;;;;;7.500001;6.9;;;;;;;15.55;100;95327.15;;;;
2019/06/21 05:22:58;;;;;;;7.500001;6.9;;;;;;;15.55;100;95327.15;;;;
2019/06/21 05:24:00;;;;;;;7.500001;6.9;;;;;;;15.55;100;95327.15;;;;
2019/06/21 05:25:01;;;;;;;7.500001;6.9;;;;;;;15.55;100;95327.15;;;;
2019/06/21 05:26:02;;;;;;;7.799999;7.099999;;;;;;;15.96;100;95318.17;;;;
2019/06/21 05:27:04;;;;;;;7.799999;7.099999;;;;;;;15.96;100;95318.17;;;;
2019/06/21 05:28:05;;;;;;;7.799999;7.099999;;;;;;;15.96;100;95318.17;;;;
2019/06/21 05:29:06;;;;;;;7.799999;7.099999;;;;;;;15.96;100;95318.17;;;;
2019/06/21 05:30:07;;;;;;;7.799999;7.099999;;;;;;;15.96;100;95318.17;;;;
2019/06/21 05:31:08;;;;;;;7.799999;7.099999;;;;;;;15.96;100;95318.17;;;;
2019/06/21 05:32:09;;;;;;;7.799999;7.099999;;;;;;;15.96;100;95318.17;;;;
2019/06/21 05:33:10;;;;;;;7.799999;7.099999;;;;;;;15.96;100;95318.17;;;;
2019/06/21 05:34:12;;;;;;;7.799999;7.099999;;;;;;;15.96;100;95318.17;;;;
2019/06/21 05:35:13;;;;;;;7.799999;7.099999;;;;;;;15.96;100;95318.17;;;;
2019/06/21 05:36:14;;;;;;;7.05;6.450001;;;;;;;16.37;100;95317.16;;;;
2019/06/21 05:37:15;;;;;;;7.05;6.450001;;;;;;;16.37;100;95317.16;;;;
2019/06/21 05:38:16;;;;;;;7.05;6.450001;;;;;;;16.37;100;95317.16;;;;
2019/06/21 05:39:17;;;;;;;7.05;6.450001;;;;;;;16.37;100;95317.16;;;;
2019/06/21 05:40:18;;;;;;;7.05;6.450001;;;;;;;16.37;100;95317.16;;;;
2019/06/21 05:41:20;;;;;;;7.05;6.450001;;;;;;;16.37;100;95317.16;;;;
2019/06/21 05:42:21;;;;;;;7.05;6.450001;;;;;;;16.37;100;95317.16;;;;
2019/06/21 05:43:22;;;;;;;7.05;6.450001;;;;;;;16.37;100;95317.16;;;;
2019/06/21 05:44:23;;;;;;;7.05;6.450001;;;;;;;16.37;100;95317.16;;;;
2019/06/21 05:45:25;;;;;;;7.05;6.450001;;;;;;;16.37;100;95317.16;;;;
2019/06/21 05:46:26;;;;;;;5.5;4.85;;;;;;;17.03;100;95326.62;;;;
2019/06/21 05:47:27;;;;;;;5.5;4.85;;;;;;;17.03;100;95326.62;;;;
2019/06/21 05:48:28;;;;;;;5.5;4.85;;;;;;;17.03;100;95326.62;;;;
2019/06/21 05:49:29;;;;;;;5.5;4.85;;;;;;;17.03;100;95326.62;;;;
2019/06/21 05:50:30;;;;;;;5.5;4.85;;;;;;;17.03;100;95326.62;;;;
2019/06/21 05:51:31;;;;;;;5.5;4.85;;;;;;;17.03;100;95326.62;;;;
2019/06/21 05:52:32;;;;;;;5.5;4.85;;;;;;;17.03;100;95326.62;;;;
2019/06/21 05:53:33;;;;;;;5.5;4.85;;;;;;;17.03;100;95326.62;;;;
2019/06/21 05:54:34;;;;;;;5.5;4.85;;;;;;;17.03;100;95326.62;;;;
2019/06/21 05:55:36;;;;;;;5.5;4.85;;;;;;;17.03;100;95326.62;;;;
2019/06/21 05:56:37;;;;;;;5.5;4.85;;;;;;;17.03;100;95326.62;;;;
2019/06/21 05:57:38;;;;;;;6.1;5.3;;;;;;;17.23;100;95343.91;;;;
2019/06/21 05:58:39;;;;;;;6.1;5.3;;;;;;;17.23;100;95343.91;;;;
2019/06/21 05:59:40;;;;;;;6.1;5.3;;;;;;;17.23;100;95343.91;;;;
2019/06/21 06:00:41;;;;;;;6.1;5.3;;;;;;;17.23;100;95343.91;;;;
2019/06/21 06:01:47;;;;;;;6.1;5.3;;;;;;;17.23;100;95343.91;;;;
2019/06/21 06:02:48;;;;;;;6.1;5.3;;;;;;;17.23;100;95343.91;;;;
2019/06/21 06:03:49;;;;;;;6.1;5.3;;;;;;;17.23;100;95343.91;;;;
2019/06/21 06:04:50;;;;;;;6.1;5.3;;;;;;;17.23;100;95343.91;;;;
2019/06/21 06:05:53;;;;;;;6.1;5.3;;;;;;;17.23;100;95343.91;;;;
2019/06/21 06:06:54;;;;;;;6.1;5.3;;;;;;;17.23;100;95343.91;;;;
2019/06/21 06:07:55;;;;;;;5.750001;5.15;;;;;;;17.99;100;95357.78;;;;
2019/06/21 06:08:56;;;;;;;5.750001;5.15;;;;;;;17.99;100;95357.78;;;;
2019/06/21 06:09:57;;;;;;;5.750001;5.15;;;;;;;17.99;100;95357.78;;;;